createdAt,value
2023-03-11T00:00:54.599Z,91291.41
2023-03-11T00:03:24.906Z,91286.06
2023-03-11T00:05:58.685Z,91289.53
2023-03-11T00:08:29.591Z,91309.47
2023-03-11T00:11:00.768Z,91305.81
2023-03-11T00:13:30.638Z,91295.06
2023-03-11T00:15:59.915Z,91298.16
2023-03-11T00:18:31.723Z,91296.03
2023-03-11T00:21:01.349Z,91307.94
2023-03-11T00:23:30.066Z,91285.09
2023-03-11T00:26:00.004Z,91283.19
2023-03-11T00:28:28.790Z,91287.44
2023-03-11T00:30:57.455Z,91285.28
2023-03-11T00:33:26.622Z,91284.69
2023-03-11T00:35:56.509Z,91292.44
2023-03-11T00:38:25.048Z,91282.44
2023-03-11T00:40:53.545Z,91276.66
2023-03-11T00:43:22.018Z,91297.34
2023-03-11T00:45:50.740Z,91301.81
2023-03-11T00:48:19.288Z,91306.56
2023-03-11T00:50:48.477Z,91320.66
2023-03-11T00:53:18.302Z,91310.75
2023-03-11T00:55:46.751Z,91318.16
2023-03-11T00:58:15.231Z,91307.66
2023-03-11T01:00:43.730Z,91298.56
2023-03-11T01:03:12.256Z,91318.69
2023-03-11T01:05:40.856Z,91299.88
2023-03-11T01:08:10.367Z,91303.41
2023-03-11T01:10:40.279Z,91307.03
2023-03-11T01:13:08.976Z,91314.81
2023-03-11T01:15:39.343Z,91335.53
2023-03-11T01:18:08.704Z,91320.31
2023-03-11T01:20:39.160Z,91299.06
2023-03-11T01:23:08.781Z,91305.28
2023-03-11T01:25:39.248Z,91313.41
2023-03-11T01:28:08.707Z,91308.69
2023-03-11T01:30:39.768Z,91314.66
2023-03-11T01:33:10.117Z,91307.88
2023-03-11T01:35:40.108Z,91300.03
2023-03-11T01:38:08.804Z,91285.09
2023-03-11T01:40:43.144Z,91274.28
2023-03-11T01:43:49.545Z,91290.66
2023-03-11T01:46:21.960Z,91302.16
2023-03-11T01:48:52.602Z,91295.00
2023-03-11T01:51:29.187Z,91306.34
2023-03-11T01:54:00.935Z,91311.75
2023-03-11T01:56:32.133Z,91292.31
2023-03-11T01:59:00.649Z,91281.16
2023-03-11T02:01:29.566Z,91267.66
2023-03-11T02:03:59.110Z,91271.69
2023-03-11T02:06:27.814Z,91269.00
2023-03-11T02:08:57.153Z,91260.69
2023-03-11T02:11:28.764Z,91268.09
2023-03-11T02:14:05.059Z,91277.13
2023-03-11T02:16:34.230Z,91274.97
2023-03-11T02:19:27.201Z,91270.91
2023-03-11T02:21:56.244Z,91269.91
2023-03-11T02:24:32.191Z,91272.97
2023-03-11T02:27:05.001Z,91270.47
2023-03-11T02:29:35.782Z,91274.19
2023-03-11T02:32:09.652Z,91283.81
2023-03-11T02:34:40.564Z,91285.34
2023-03-11T02:37:11.393Z,91294.09
2023-03-11T02:39:42.576Z,91293.28
2023-03-11T02:42:17.525Z,91303.94
2023-03-11T02:44:49.236Z,91302.38
2023-03-11T02:47:18.808Z,91299.25
2023-03-11T02:49:47.415Z,91290.22
2023-03-11T02:52:16.042Z,91287.94
2023-03-11T02:54:44.536Z,91277.75
2023-03-11T02:57:14.396Z,91274.31
2023-03-11T02:59:42.888Z,91278.78
2023-03-11T03:02:11.503Z,91279.63
2023-03-11T03:04:39.988Z,91276.28
2023-03-11T03:07:08.538Z,91264.53
2023-03-11T03:09:38.354Z,91292.16
2023-03-11T03:12:07.890Z,91291.28
2023-03-11T03:14:37.722Z,91282.69
2023-03-11T03:17:06.418Z,91283.28
2023-03-11T03:19:35.087Z,91269.19
2023-03-11T03:22:03.589Z,91268.00
2023-03-11T03:24:32.533Z,91272.84
2023-03-11T03:27:01.322Z,91270.25
2023-03-11T03:29:29.757Z,91286.09
2023-03-11T03:31:59.668Z,91269.75
2023-03-11T03:34:28.124Z,91280.63
2023-03-11T03:36:56.585Z,91286.66
2023-03-11T03:39:25.069Z,91309.72
2023-03-11T03:41:53.554Z,91324.16
2023-03-11T03:44:22.265Z,91312.06
2023-03-11T03:46:50.730Z,91316.97
2023-03-11T03:49:20.638Z,91314.91
2023-03-11T03:51:49.080Z,91308.00
2023-03-11T03:54:17.625Z,91325.69
2023-03-11T03:56:46.135Z,91330.13
2023-03-11T03:59:14.944Z,91339.69
2023-03-11T04:01:43.640Z,91341.91
2023-03-11T04:04:12.094Z,91344.44
2023-03-11T04:06:41.989Z,91346.41
2023-03-11T04:09:12.822Z,91337.19
2023-03-11T04:11:41.342Z,91335.41
2023-03-11T04:14:09.797Z,91335.66
2023-03-11T04:16:38.791Z,91342.91
2023-03-11T04:19:07.571Z,91344.31
2023-03-11T04:21:36.320Z,91355.69
2023-03-11T04:24:06.415Z,91348.13
2023-03-11T04:26:34.896Z,91340.00
2023-03-11T04:29:03.404Z,91336.91
2023-03-11T04:31:31.842Z,91329.78
2023-03-11T04:34:00.309Z,91351.22
2023-03-11T04:36:29.232Z,91345.06
2023-03-11T04:38:58.324Z,91344.03
2023-03-11T04:41:28.177Z,91347.81
2023-03-11T04:43:56.651Z,91352.47
2023-03-11T04:46:25.220Z,91354.16
2023-03-11T04:48:53.806Z,91353.03
2023-03-11T04:51:22.286Z,91361.75
2023-03-11T04:53:50.958Z,91355.16
2023-03-11T04:56:19.442Z,91373.34
2023-03-11T04:58:49.589Z,91366.56
2023-03-11T05:01:18.060Z,91367.31
2023-03-11T05:03:47.135Z,91369.22
2023-03-11T05:06:15.642Z,91367.13
2023-03-11T05:08:44.170Z,91372.13
2023-03-11T05:11:12.636Z,91369.78
2023-03-11T05:13:41.095Z,91370.91
2023-03-11T05:16:11.292Z,91379.97
2023-03-11T05:18:39.778Z,91375.16
2023-03-11T05:21:08.242Z,91376.63
2023-03-11T05:23:36.718Z,91364.06
2023-03-11T05:26:05.657Z,91362.38
2023-03-11T05:28:34.206Z,91362.38
2023-03-11T05:31:02.706Z,91363.97
2023-03-11T05:33:35.620Z,91351.69
2023-03-11T05:36:09.875Z,91353.72
2023-03-11T05:38:39.714Z,91357.13
2023-03-11T05:41:08.172Z,91350.72
2023-03-11T05:43:36.611Z,91361.91
2023-03-11T05:46:05.446Z,91358.06
2023-03-11T05:48:36.430Z,91351.38
2023-03-11T05:51:08.909Z,91358.59
2023-03-11T05:53:37.760Z,91364.03
2023-03-11T05:56:07.815Z,91366.88
2023-03-11T05:58:36.244Z,91360.56
2023-03-11T06:01:11.072Z,91361.69
2023-03-11T06:03:42.133Z,91366.50
2023-03-11T06:06:13.395Z,91363.78
2023-03-11T06:08:46.066Z,91371.47
2023-03-11T06:11:15.441Z,91371.44
2023-03-11T06:13:43.884Z,91379.28
2023-03-11T06:16:13.007Z,91390.81
2023-03-11T06:18:42.867Z,91382.81
2023-03-11T06:21:17.341Z,91387.91
2023-03-11T06:23:45.948Z,91393.72
2023-03-11T06:26:17.310Z,91386.94
2023-03-11T06:28:46.255Z,91397.66
2023-03-11T06:31:19.517Z,91395.25
2023-03-11T06:33:50.086Z,91405.50
2023-03-11T06:36:20.649Z,91393.78
2023-03-11T06:38:50.441Z,91398.66
2023-03-11T06:41:18.958Z,91403.66
2023-03-11T06:43:47.661Z,91413.56
2023-03-11T06:46:19.532Z,91410.09
2023-03-11T06:48:52.227Z,91417.06
2023-03-11T06:51:21.474Z,91414.69
2023-03-11T06:53:51.902Z,91423.75
2023-03-11T06:56:22.297Z,91416.56
2023-03-11T06:58:51.470Z,91419.84
2023-03-11T07:01:22.109Z,91427.13
2023-03-11T07:03:52.890Z,91437.50
2023-03-11T07:06:23.995Z,91445.19
2023-03-11T07:08:54.267Z,91444.41
2023-03-11T07:11:26.228Z,91451.25
2023-03-11T07:13:56.005Z,91449.78
2023-03-11T07:16:27.009Z,91448.19
2023-03-11T07:19:00.988Z,91453.88
2023-03-11T07:21:31.786Z,91455.84
2023-03-11T07:24:02.937Z,91447.47
2023-03-11T07:26:33.582Z,91448.03
2023-03-11T07:29:02.814Z,91443.69
2023-03-11T07:31:34.252Z,91448.88
2023-03-11T07:34:11.166Z,91454.25
2023-03-11T07:36:42.668Z,91452.75
2023-03-11T07:39:16.340Z,91451.94
2023-03-11T07:41:45.645Z,91470.38
2023-03-11T07:44:16.268Z,91485.16
2023-03-11T07:46:45.908Z,91490.13
2023-03-11T07:49:15.794Z,91481.72
2023-03-11T07:51:45.126Z,91474.22
2023-03-11T07:54:14.566Z,91491.59
2023-03-11T07:56:43.285Z,91494.50
2023-03-11T07:59:11.913Z,91487.09
2023-03-11T08:01:41.529Z,91482.03
2023-03-11T08:04:14.389Z,91483.38
2023-03-11T08:06:46.842Z,91484.78
2023-03-11T08:09:15.668Z,91472.50
2023-03-11T08:11:44.163Z,91471.19
2023-03-11T08:14:12.649Z,91467.56
2023-03-11T08:16:42.301Z,91467.88
2023-03-11T08:19:12.964Z,91480.22
2023-03-11T08:21:43.109Z,91483.09
2023-03-11T08:24:14.100Z,91479.69
2023-03-11T08:26:43.007Z,91474.91
2023-03-11T08:29:12.532Z,91488.31
2023-03-11T08:31:41.239Z,91490.66
2023-03-11T08:34:12.323Z,91488.47
2023-03-11T08:36:41.169Z,91503.19
2023-03-11T08:39:11.308Z,91494.34
2023-03-11T08:41:39.983Z,91496.09
2023-03-11T08:44:08.773Z,91501.38
2023-03-11T08:46:40.932Z,91505.50
2023-03-11T08:49:09.994Z,91505.22
2023-03-11T08:51:38.640Z,91502.97
2023-03-11T08:54:07.786Z,91497.69
2023-03-11T08:56:37.796Z,91505.13
2023-03-11T08:59:06.934Z,91503.75
2023-03-11T09:01:35.379Z,91513.38
2023-03-11T09:04:04.063Z,91511.09
2023-03-11T09:06:32.842Z,91509.19
2023-03-11T09:09:01.756Z,91507.06
2023-03-11T09:11:30.414Z,91502.75
2023-03-11T09:14:00.308Z,91506.84
2023-03-11T09:16:28.921Z,91508.81
2023-03-11T09:19:00.338Z,91515.19
2023-03-11T09:21:29.068Z,91513.00
2023-03-11T09:23:57.527Z,91517.56
2023-03-11T09:26:26.181Z,91524.63
2023-03-11T09:28:54.840Z,91522.28
2023-03-11T09:31:25.109Z,91519.34
2023-03-11T09:33:55.763Z,91521.28
2023-03-11T09:36:24.711Z,91519.16
2023-03-11T09:38:53.395Z,91525.13
2023-03-11T09:41:31.690Z,91528.06
2023-03-11T09:44:14.778Z,91537.84
2023-03-11T09:47:32.130Z,91540.63
2023-03-11T09:50:16.710Z,91543.47
2023-03-11T09:52:52.840Z,91545.25
2023-03-11T09:55:37.671Z,91530.38
2023-03-11T09:58:23.673Z,91538.03
2023-03-11T10:00:53.520Z,91531.53
2023-03-11T10:03:33.761Z,91534.22
2023-03-11T10:06:14.318Z,91534.59
2023-03-11T10:08:48.984Z,91532.94
2023-03-11T10:11:49.873Z,91536.72
2023-03-11T10:14:43.588Z,91529.22
2023-03-11T10:17:23.964Z,91529.88
2023-03-11T10:19:58.635Z,91528.84
2023-03-11T10:22:36.286Z,91525.31
2023-03-11T10:25:12.415Z,91520.81
2023-03-11T10:27:48.233Z,91520.09
2023-03-11T10:30:26.240Z,91520.81
2023-03-11T10:33:00.617Z,91528.44
2023-03-11T10:35:39.484Z,91526.09
2023-03-11T10:38:16.528Z,91525.38
2023-03-11T10:40:47.058Z,91529.25
2023-03-11T10:43:20.438Z,91537.66
2023-03-11T10:45:51.745Z,91537.59
2023-03-11T10:48:21.895Z,91529.63
2023-03-11T10:50:59.821Z,91539.94
2023-03-11T10:53:28.270Z,91536.06
2023-03-11T10:55:59.802Z,91538.38
2023-03-11T10:58:31.080Z,91539.56
2023-03-11T11:01:06.320Z,91545.31
2023-03-11T11:03:35.833Z,91535.00
2023-03-11T11:06:08.961Z,91531.16
2023-03-11T11:08:37.445Z,91535.75
2023-03-11T11:11:22.334Z,91520.78
2023-03-11T11:13:58.864Z,91523.88
2023-03-11T11:16:28.952Z,91522.28
2023-03-11T11:19:04.354Z,91520.38
2023-03-11T11:21:37.536Z,91520.75
2023-03-11T11:24:16.694Z,91514.31
2023-03-11T11:27:05.036Z,91510.91
2023-03-11T11:29:34.854Z,91506.28
2023-03-11T11:32:21.612Z,91511.88
2023-03-11T11:35:00.387Z,91522.38
2023-03-11T11:37:33.573Z,91515.03
2023-03-11T11:40:11.705Z,91520.63
2023-03-11T11:42:42.693Z,91522.19
2023-03-11T11:45:18.313Z,91531.75
2023-03-11T11:47:50.911Z,91524.06
2023-03-11T11:50:27.803Z,91523.50
2023-03-11T11:53:10.147Z,91518.00
2023-03-11T11:55:43.533Z,91516.25
2023-03-11T11:58:13.390Z,91523.81
2023-03-11T12:00:57.124Z,91521.53
2023-03-11T12:04:12.685Z,91515.09
2023-03-11T12:06:49.307Z,91505.28
2023-03-11T12:09:29.283Z,91503.69
2023-03-11T12:12:08.451Z,91502.22
2023-03-11T12:14:43.717Z,91514.53
2023-03-11T12:17:15.014Z,91510.47
2023-03-11T12:19:51.264Z,91517.75
2023-03-11T12:23:11.267Z,91504.53
2023-03-11T12:25:49.605Z,91507.81
2023-03-11T12:28:24.808Z,91501.66
2023-03-11T12:30:57.884Z,91497.00
2023-03-11T12:33:33.174Z,91495.59
2023-03-11T12:38:50.493Z,91482.56
2023-03-11T12:41:33.758Z,91482.78
2023-03-11T12:44:22.248Z,91491.69
2023-03-11T12:47:25.701Z,91490.22
2023-03-11T12:49:56.061Z,91481.31
2023-03-11T12:52:53.422Z,91466.91
2023-03-11T12:55:35.287Z,91481.56
2023-03-11T12:58:34.284Z,91483.09
2023-03-11T13:01:36.127Z,91476.41
2023-03-11T13:04:26.006Z,91476.41
2023-03-11T13:07:32.466Z,91470.88
2023-03-11T13:10:20.439Z,91460.16
2023-03-11T13:12:50.441Z,91458.88
2023-03-11T13:15:37.056Z,91471.50
2023-03-11T13:18:25.127Z,91476.44
2023-03-11T13:20:58.908Z,91470.91
2023-03-11T13:23:37.741Z,91482.63
2023-03-11T13:26:40.423Z,91493.03
2023-03-11T13:29:49.623Z,91489.19
2023-03-11T13:32:56.302Z,91487.75
2023-03-11T13:35:47.874Z,91490.81
2023-03-11T13:38:40.997Z,91490.00
2023-03-11T13:41:17.870Z,91490.75
2023-03-11T13:43:50.402Z,91489.84
2023-03-11T13:46:30.155Z,91490.66
2023-03-11T13:49:07.720Z,91503.03
2023-03-11T13:51:42.457Z,91492.44
2023-03-11T13:54:33.925Z,91500.00
2023-03-11T13:57:04.272Z,91502.25
2023-03-11T13:59:34.975Z,91491.38
2023-03-11T14:02:16.970Z,91508.47
2023-03-11T14:04:51.577Z,91511.16
2023-03-11T14:07:28.644Z,91514.22
2023-03-11T14:10:31.227Z,91510.88
2023-03-11T14:13:09.093Z,91522.28
2023-03-11T14:15:48.805Z,91517.66
2023-03-11T14:18:37.840Z,91514.63
2023-03-11T14:21:13.925Z,91508.91
2023-03-11T14:23:44.928Z,91500.53
2023-03-11T14:26:20.170Z,91501.69
2023-03-11T14:28:52.701Z,91512.06
2023-03-11T14:31:33.499Z,91508.59
2023-03-11T14:34:06.846Z,91515.50
2023-03-11T14:36:44.960Z,91521.59
2023-03-11T14:39:29.666Z,91505.84
2023-03-11T14:42:05.596Z,91516.22
2023-03-11T14:44:37.447Z,91518.91
2023-03-11T14:47:13.314Z,91527.66
2023-03-11T14:49:43.371Z,91523.88
2023-03-11T14:52:20.557Z,91536.88
2023-03-11T14:54:50.668Z,91520.06
2023-03-11T14:57:24.420Z,91529.25
2023-03-11T14:59:54.602Z,91533.09
2023-03-11T15:02:41.899Z,91533.06
2023-03-11T15:05:19.196Z,91523.50
2023-03-11T15:07:52.860Z,91521.59
2023-03-11T15:10:21.725Z,91523.13
2023-03-11T15:12:50.238Z,91517.75
2023-03-11T15:15:28.510Z,91523.84
2023-03-11T15:17:58.973Z,91524.63
2023-03-11T15:20:33.981Z,91526.94
2023-03-11T15:23:07.725Z,91536.84
2023-03-11T15:25:41.014Z,91536.44
2023-03-11T15:28:28.423Z,91536.72
2023-03-11T15:31:36.822Z,91545.19
2023-03-11T15:34:25.182Z,91553.94
2023-03-11T15:37:21.379Z,91567.38
2023-03-11T15:39:53.570Z,91567.31
2023-03-11T15:42:25.776Z,91570.34
2023-03-11T15:45:17.639Z,91564.25
2023-03-11T15:47:48.138Z,91572.94
2023-03-11T15:50:27.334Z,91571.50
2023-03-11T15:52:59.968Z,91571.09
2023-03-11T15:55:29.825Z,91577.97
2023-03-11T15:58:05.452Z,91576.25
2023-03-11T16:00:34.284Z,91583.19
2023-03-11T16:03:02.828Z,91578.97
2023-03-11T16:05:31.396Z,91584.00
2023-03-11T16:07:59.832Z,91593.47
2023-03-11T16:10:29.782Z,91594.59
2023-03-11T16:12:58.535Z,91596.38
2023-03-11T16:15:30.091Z,91598.59
2023-03-11T16:18:01.808Z,91601.09
2023-03-11T16:20:34.320Z,91605.38
2023-03-11T16:23:03.029Z,91606.75
2023-03-11T16:25:36.520Z,91613.34
2023-03-11T16:28:05.906Z,91614.44
2023-03-11T16:30:36.052Z,91622.97
2023-03-11T16:33:05.304Z,91620.41
2023-03-11T16:35:34.412Z,91623.31
2023-03-11T16:38:02.968Z,91624.66
2023-03-11T16:40:32.813Z,91624.56
2023-03-11T16:43:04.274Z,91626.69
2023-03-11T16:45:33.218Z,91624.75
2023-03-11T16:48:02.330Z,91628.38
2023-03-11T16:50:31.320Z,91629.72
2023-03-11T16:53:00.254Z,91628.56
2023-03-11T16:55:29.897Z,91639.72
2023-03-11T16:57:59.755Z,91636.72
2023-03-11T17:00:28.291Z,91630.97
2023-03-11T17:02:56.948Z,91635.84
2023-03-11T17:05:25.528Z,91641.69
2023-03-11T17:08:00.069Z,91634.13
2023-03-11T17:10:29.548Z,91638.34
2023-03-11T17:12:59.764Z,91643.94
2023-03-11T17:15:28.253Z,91642.19
2023-03-11T17:17:56.980Z,91645.97
2023-03-11T17:20:25.785Z,91641.59
2023-03-11T17:22:54.240Z,91647.97
2023-03-11T17:25:22.758Z,91644.84
2023-03-11T17:27:51.693Z,91638.28
2023-03-11T17:30:36.045Z,91652.09
2023-03-11T17:33:05.732Z,91657.72
2023-03-11T17:35:34.800Z,91652.69
2023-03-11T17:38:04.413Z,91666.19
2023-03-11T17:40:32.944Z,91668.28
2023-03-11T17:43:01.591Z,91680.38
2023-03-11T17:45:31.657Z,91686.03
2023-03-11T17:48:00.341Z,91691.09
2023-03-11T17:50:28.953Z,91699.72
2023-03-11T17:52:57.809Z,91696.63
2023-03-11T17:55:26.383Z,91703.41
2023-03-11T17:57:54.877Z,91705.47
2023-03-11T18:00:24.087Z,91705.56
2023-03-11T18:02:54.097Z,91711.47
2023-03-11T18:05:23.136Z,91704.34
2023-03-11T18:07:51.662Z,91711.16
2023-03-11T18:10:21.505Z,91710.31
2023-03-11T18:12:50.173Z,91716.47
2023-03-11T18:15:19.945Z,91719.75
2023-03-11T18:17:49.147Z,91722.16
2023-03-11T18:20:20.456Z,91722.94
2023-03-11T18:22:48.913Z,91735.34
2023-03-11T18:25:17.570Z,91730.38
2023-03-11T18:27:46.218Z,91732.59
2023-03-11T18:30:15.595Z,91730.13
2023-03-11T18:32:44.850Z,91734.56
2023-03-11T18:35:14.219Z,91742.91
2023-03-11T18:37:44.247Z,91748.78
2023-03-11T18:40:14.682Z,91743.16
2023-03-11T18:42:43.405Z,91751.63
2023-03-11T18:45:14.691Z,91744.69
2023-03-11T18:47:43.164Z,91752.50
2023-03-11T18:50:13.250Z,91755.56
2023-03-11T18:52:43.128Z,91748.56
2023-03-11T18:55:12.107Z,91753.75
2023-03-11T18:57:43.185Z,91761.28
2023-03-11T19:00:13.424Z,91763.06
2023-03-11T19:02:42.022Z,91764.19
2023-03-11T19:05:12.861Z,91760.19
2023-03-11T19:07:41.312Z,91768.81
2023-03-11T19:10:15.141Z,91772.34
2023-03-11T19:12:45.229Z,91777.66
2023-03-11T19:15:13.879Z,91782.19
2023-03-11T19:17:42.686Z,91784.94
2023-03-11T19:20:13.184Z,91787.38
2023-03-11T19:22:41.668Z,91782.00
2023-03-11T19:25:11.767Z,91788.84
2023-03-11T19:27:40.350Z,91789.47
2023-03-11T19:30:10.837Z,91798.88
2023-03-11T19:32:39.408Z,91801.88
2023-03-11T19:35:11.175Z,91804.88
2023-03-11T19:37:39.880Z,91811.97
2023-03-11T19:40:12.778Z,91793.09
2023-03-11T19:42:41.258Z,91806.56
2023-03-11T19:45:10.959Z,91809.72
2023-03-11T19:47:39.875Z,91811.97
2023-03-11T19:50:09.947Z,91798.88
2023-03-11T19:52:38.690Z,91804.53
2023-03-11T19:55:08.718Z,91822.19
2023-03-11T19:57:38.880Z,91823.50
2023-03-11T20:00:09.683Z,91823.38
2023-03-11T20:02:38.210Z,91820.34
2023-03-11T20:05:08.485Z,91817.44
2023-03-11T20:07:36.941Z,91830.00
2023-03-11T20:10:06.426Z,91825.31
2023-03-11T20:12:36.468Z,91823.34
2023-03-11T20:15:07.611Z,91823.94
2023-03-11T20:17:36.039Z,91830.59
2023-03-11T20:20:04.850Z,91829.25
2023-03-11T20:22:33.324Z,91828.81
2023-03-11T20:25:01.786Z,91827.13
2023-03-11T20:27:30.725Z,91829.41
2023-03-11T20:29:59.407Z,91832.66
2023-03-11T20:32:30.945Z,91836.75
2023-03-11T20:34:59.660Z,91839.28
2023-03-11T20:37:30.063Z,91847.38
2023-03-11T20:39:58.773Z,91843.00
2023-03-11T20:42:27.251Z,91848.59
2023-03-11T20:44:56.748Z,91851.16
2023-03-11T20:47:25.613Z,91851.06
2023-03-11T20:49:57.178Z,91847.13
2023-03-11T20:52:27.061Z,91852.81
2023-03-11T20:54:55.565Z,91853.47
2023-03-11T20:57:24.359Z,91859.97
2023-03-11T20:59:53.140Z,91861.88
2023-03-11T21:02:22.650Z,91854.00
2023-03-11T21:04:51.190Z,91855.34
2023-03-11T21:07:21.003Z,91860.66
2023-03-11T21:09:54.581Z,91855.28
2023-03-11T21:12:23.498Z,91867.03
2023-03-11T21:14:51.977Z,91868.09
2023-03-11T21:17:20.543Z,91868.53
2023-03-11T21:19:49.014Z,91864.41
2023-03-11T21:22:17.527Z,91865.44
2023-03-11T21:24:47.630Z,91863.06
2023-03-11T21:27:16.384Z,91865.91
2023-03-11T21:29:45.025Z,91864.06
2023-03-11T21:32:13.923Z,91872.59
2023-03-11T21:34:42.590Z,91871.66
2023-03-11T21:37:11.347Z,91872.84
2023-03-11T21:39:39.895Z,91870.72
2023-03-11T21:42:09.799Z,91868.91
2023-03-11T21:44:38.530Z,91875.66
2023-03-11T21:47:07.342Z,91878.47
2023-03-11T21:49:36.332Z,91873.16
2023-03-11T21:52:05.144Z,91883.91
2023-03-11T21:54:33.711Z,91884.91
2023-03-11T21:57:03.814Z,91878.22
2023-03-11T21:59:33.854Z,91869.69
2023-03-11T22:02:03.542Z,91878.53
2023-03-11T22:04:33.059Z,91878.56
2023-03-11T22:07:01.758Z,91869.81
2023-03-11T22:09:30.525Z,91882.19
2023-03-11T22:11:59.590Z,91861.91
2023-03-11T22:14:28.264Z,91881.38
2023-03-11T22:16:58.311Z,91883.25
2023-03-11T22:19:27.297Z,91881.47
2023-03-11T22:21:55.763Z,91887.97
2023-03-11T22:24:24.291Z,91892.88
2023-03-11T22:26:52.982Z,91883.69
2023-03-11T22:29:21.531Z,91894.44
2023-03-11T22:31:50.087Z,91893.69
2023-03-11T22:34:19.896Z,91894.66
2023-03-11T22:36:48.432Z,91883.78
2023-03-11T22:39:16.909Z,91885.66
2023-03-11T22:41:45.371Z,91889.69
2023-03-11T22:44:13.851Z,91891.97
2023-03-11T22:46:42.291Z,91903.84
2023-03-11T22:49:10.850Z,91907.19
2023-03-11T22:51:40.904Z,91909.69
2023-03-11T22:54:09.533Z,91904.44
2023-03-11T22:56:38.229Z,91905.47
2023-03-11T22:59:06.775Z,91907.78
2023-03-11T23:01:35.239Z,91904.16
2023-03-11T23:04:03.818Z,91898.78
2023-03-11T23:06:32.397Z,91905.91
2023-03-11T23:09:02.218Z,91905.34
2023-03-11T23:11:30.780Z,91905.91
2023-03-11T23:13:59.824Z,91910.00
2023-03-11T23:16:28.332Z,91907.69
2023-03-11T23:18:57.523Z,91911.25
2023-03-11T23:21:29.302Z,91903.78
2023-03-11T23:24:00.114Z,91906.97
2023-03-11T23:26:30.955Z,91903.78
2023-03-11T23:29:01.000Z,91907.56
2023-03-11T23:31:31.234Z,91899.78
2023-03-11T23:34:00.021Z,91905.66
2023-03-11T23:36:30.408Z,91904.66
2023-03-11T23:38:59.518Z,91910.72
2023-03-11T23:41:29.398Z,91908.59
2023-03-11T23:43:57.906Z,91909.47
2023-03-11T23:46:26.684Z,91907.00
2023-03-11T23:48:55.161Z,91905.69
2023-03-11T23:51:23.712Z,91907.50
2023-03-11T23:53:52.164Z,91907.25
2023-03-11T23:56:21.047Z,91890.06
2023-03-11T23:58:50.998Z,91897.81
